sensor_id;sensor_type;location;lat;lon;timestamp;pressure;altitude;pressure_sealevel;temperature;humidity
20983;BME280;10650;51.528;6.748;2022-09-13T00:02:13;100802.09;;;19.64;65.42
20983;BME280;10650;51.528;6.748;2022-09-13T00:04:41;100800.31;;;19.63;65.39
20983;BME280;10650;51.528;6.748;2022-09-13T00:07:08;100804.91;;;19.61;65.67
20983;BME280;10650;51.528;6.748;2022-09-13T00:09:36;100796.88;;;19.60;65.81
20983;BME280;10650;51.528;6.748;2022-09-13T00:12:04;100802.28;;;19.60;66.08
20983;BME280;10650;51.528;6.748;2022-09-13T00:14:32;100790.66;;;19.58;66.11
20983;BME280;10650;51.528;6.748;2022-09-13T00:17:01;100792.47;;;19.57;66.17
20983;BME280;10650;51.528;6.748;2022-09-13T00:19:28;100786.31;;;19.53;66.34
20983;BME280;10650;51.528;6.748;2022-09-13T00:21:56;100777.50;;;19.48;66.21
20983;BME280;10650;51.528;6.748;2022-09-13T00:24:24;100784.84;;;19.46;66.35
20983;BME280;10650;51.528;6.748;2022-09-13T00:26:51;100774.94;;;19.45;66.56
20983;BME280;10650;51.528;6.748;2022-09-13T00:29:19;100772.31;;;19.44;66.82
20983;BME280;10650;51.528;6.748;2022-09-13T00:31:46;100771.44;;;19.43;66.59
20983;BME280;10650;51.528;6.748;2022-09-13T00:34:16;100773.38;;;19.40;66.49
20983;BME280;10650;51.528;6.748;2022-09-13T00:36:43;100770.81;;;19.36;66.57
20983;BME280;10650;51.528;6.748;2022-09-13T00:39:11;100779.97;;;19.34;66.69
20983;BME280;10650;51.528;6.748;2022-09-13T00:41:39;100777.47;;;19.29;66.68
20983;BME280;10650;51.528;6.748;2022-09-13T00:47:09;100784.91;;;19.24;67.15
20983;BME280;10650;51.528;6.748;2022-09-13T00:49:40;100776.91;;;19.21;67.38
20983;BME280;10650;51.528;6.748;2022-09-13T00:52:11;100778.84;;;19.19;67.53
20983;BME280;10650;51.528;6.748;2022-09-13T00:54:43;100773.47;;;19.17;67.69
20983;BME280;10650;51.528;6.748;2022-09-13T00:57:13;100773.63;;;19.14;67.95
20983;BME280;10650;51.528;6.748;2022-09-13T00:59:46;100775.50;;;19.12;68.14
20983;BME280;10650;51.528;6.748;2022-09-13T01:02:17;100772.06;;;19.09;68.13
20983;BME280;10650;51.528;6.748;2022-09-13T01:04:47;100762.25;;;19.06;68.36
20983;BME280;10650;51.528;6.748;2022-09-13T01:07:16;100768.53;;;19.07;68.64
20983;BME280;10650;51.528;6.748;2022-09-13T01:09:46;100764.09;;;19.06;68.63
20983;BME280;10650;51.528;6.748;2022-09-13T01:12:25;100762.31;;;19.05;68.84
20983;BME280;10650;51.528;6.748;2022-09-13T01:14:58;100765.81;;;19.07;68.99
20983;BME280;10650;51.528;6.748;2022-09-13T01:17:27;100765.09;;;19.03;69.23
20983;BME280;10650;51.528;6.748;2022-09-13T01:19:58;100755.28;;;19.00;69.44
20983;BME280;10650;51.528;6.748;2022-09-13T01:26:09;100751.94;;;18.94;69.69
20983;BME280;10650;51.528;6.748;2022-09-13T01:29:07;100752.94;;;18.91;69.83
20983;BME280;10650;51.528;6.748;2022-09-13T01:31:46;100748.66;;;18.87;70.08
20983;BME280;10650;51.528;6.748;2022-09-13T01:34:27;100754.09;;;18.85;70.08
20983;BME280;10650;51.528;6.748;2022-09-13T01:37:32;100749.56;;;18.86;70.64
20983;BME280;10650;51.528;6.748;2022-09-13T01:40:09;100753.19;;;18.85;70.71
20983;BME280;10650;51.528;6.748;2022-09-13T01:43:01;100745.28;;;18.80;71.10
20983;BME280;10650;51.528;6.748;2022-09-13T01:45:38;100755.25;;;18.80;71.08
20983;BME280;10650;51.528;6.748;2022-09-13T01:48:15;100747.19;;;18.78;70.61
20983;BME280;10650;51.528;6.748;2022-09-13T01:50:51;100753.28;;;18.83;70.91
20983;BME280;10650;51.528;6.748;2022-09-13T01:53:26;100744.22;;;18.84;70.52
20983;BME280;10650;51.528;6.748;2022-09-13T01:56:01;100753.16;;;18.87;70.80
20983;BME280;10650;51.528;6.748;2022-09-13T01:58:38;100745.88;;;18.89;70.75
20983;BME280;10650;51.528;6.748;2022-09-13T02:01:11;100752.16;;;18.89;70.94
20983;BME280;10650;51.528;6.748;2022-09-13T02:03:44;100751.22;;;18.90;70.74
20983;BME280;10650;51.528;6.748;2022-09-13T02:06:18;100759.13;;;18.95;70.57
20983;BME280;10650;51.528;6.748;2022-09-13T02:08:47;100760.69;;;19.00;69.89
20983;BME280;10650;51.528;6.748;2022-09-13T02:11:17;100750.59;;;19.04;69.55
20983;BME280;10650;51.528;6.748;2022-09-13T02:13:48;100753.78;;;19.14;68.93
20983;BME280;10650;51.528;6.748;2022-09-13T02:16:23;100749.97;;;19.18;68.64
20983;BME280;10650;51.528;6.748;2022-09-13T02:18:57;100747.81;;;19.26;68.19
20983;BME280;10650;51.528;6.748;2022-09-13T02:21:28;100742.13;;;19.32;68.20
20983;BME280;10650;51.528;6.748;2022-09-13T02:24:00;100748.22;;;19.38;67.65
20983;BME280;10650;51.528;6.748;2022-09-13T02:26:29;100742.59;;;19.42;67.78
20983;BME280;10650;51.528;6.748;2022-09-13T02:29:00;100747.84;;;19.45;67.31
20983;BME280;10650;51.528;6.748;2022-09-13T02:31:34;100734.22;;;19.47;67.37
20983;BME280;10650;51.528;6.748;2022-09-13T02:34:09;100739.66;;;19.47;67.46
20983;BME280;10650;51.528;6.748;2022-09-13T02:36:40;100734.31;;;19.45;67.47
20983;BME280;10650;51.528;6.748;2022-09-13T02:39:12;100737.25;;;19.41;67.41
20983;BME280;10650;51.528;6.748;2022-09-13T02:41:46;100737.38;;;19.38;67.63
20983;BME280;10650;51.528;6.748;2022-09-13T02:44:21;100734.81;;;19.34;67.52
20983;BME280;10650;51.528;6.748;2022-09-13T02:47:00;100728.50;;;19.34;67.37
20983;BME280;10650;51.528;6.748;2022-09-13T02:49:42;100731.34;;;19.31;67.91
20983;BME280;10650;51.528;6.748;2022-09-13T02:52:15;100736.84;;;19.29;68.08
20983;BME280;10650;51.528;6.748;2022-09-13T02:54:51;100738.69;;;19.29;67.80
20983;BME280;10650;51.528;6.748;2022-09-13T02:57:27;100739.63;;;19.28;67.98
20983;BME280;10650;51.528;6.748;2022-09-13T02:59:57;100737.84;;;19.27;68.22
20983;BME280;10650;51.528;6.748;2022-09-13T03:02:28;100746.13;;;19.24;68.22
20983;BME280;10650;51.528;6.748;2022-09-13T03:05:00;100742.34;;;19.28;68.10
20983;BME280;10650;51.528;6.748;2022-09-13T03:07:28;100743.19;;;19.28;68.23
20983;BME280;10650;51.528;6.748;2022-09-13T03:09:59;100755.88;;;19.28;68.25
20983;BME280;10650;51.528;6.748;2022-09-13T03:13:00;100744.16;;;19.27;68.05
20983;BME280;10650;51.528;6.748;2022-09-13T03:15:40;100744.09;;;19.29;68.16
20983;BME280;10650;51.528;6.748;2022-09-13T03:18:22;100746.88;;;19.27;68.42
20983;BME280;10650;51.528;6.748;2022-09-13T03:21:04;100744.09;;;19.29;68.50
20983;BME280;10650;51.528;6.748;2022-09-13T03:23:39;100744.09;;;19.29;68.68
20983;BME280;10650;51.528;6.748;2022-09-13T03:26:24;100754.03;;;19.28;68.82
20983;BME280;10650;51.528;6.748;2022-09-13T03:29:07;100752.09;;;19.32;68.73
20983;BME280;10650;51.528;6.748;2022-09-13T03:31:42;100754.66;;;19.35;68.53
20983;BME280;10650;51.528;6.748;2022-09-13T03:34:20;100749.97;;;19.39;68.90
20983;BME280;10650;51.528;6.748;2022-09-13T03:36:55;100757.97;;;19.42;69.05
20983;BME280;10650;51.528;6.748;2022-09-13T03:39:30;100756.13;;;19.42;69.43
20983;BME280;10650;51.528;6.748;2022-09-13T03:42:04;100757.00;;;19.43;69.99
20983;BME280;10650;51.528;6.748;2022-09-13T03:44:34;100747.13;;;19.42;70.67
20983;BME280;10650;51.528;6.748;2022-09-13T03:47:04;100740.03;;;19.39;70.91
20983;BME280;10650;51.528;6.748;2022-09-13T03:49:33;100738.25;;;19.38;71.00
20983;BME280;10650;51.528;6.748;2022-09-13T03:52:05;100734.75;;;19.36;71.38
20983;BME280;10650;51.528;6.748;2022-09-13T03:54:36;100735.75;;;19.33;71.49
20983;BME280;10650;51.528;6.748;2022-09-13T03:57:08;100737.69;;;19.31;72.15
20983;BME280;10650;51.528;6.748;2022-09-13T03:59:38;100738.75;;;19.27;72.22
20983;BME280;10650;51.528;6.748;2022-09-13T04:02:06;100729.88;;;19.24;72.50
20983;BME280;10650;51.528;6.748;2022-09-13T04:04:38;100730.09;;;19.19;73.18
20983;BME280;10650;51.528;6.748;2022-09-13T04:07:08;100729.41;;;19.14;73.19
20983;BME280;10650;51.528;6.748;2022-09-13T04:09:36;100743.00;;;19.12;73.22
20983;BME280;10650;51.528;6.748;2022-09-13T04:12:04;100727.75;;;19.11;73.09
20983;BME280;10650;51.528;6.748;2022-09-13T04:14:32;100718.72;;;19.11;73.16
20983;BME280;10650;51.528;6.748;2022-09-13T04:17:00;100727.78;;;19.10;73.38
20983;BME280;10650;51.528;6.748;2022-09-13T04:19:28;100732.31;;;19.09;73.29
20983;BME280;10650;51.528;6.748;2022-09-13T04:21:56;100732.41;;;19.08;74.09
20983;BME280;10650;51.528;6.748;2022-09-13T04:24:27;100729.75;;;19.06;74.42
20983;BME280;10650;51.528;6.748;2022-09-13T04:26:55;100724.50;;;19.03;75.03
20983;BME280;10650;51.528;6.748;2022-09-13T04:29:24;100733.63;;;19.00;74.97
20983;BME280;10650;51.528;6.748;2022-09-13T04:31:53;100728.34;;;18.97;74.99
20983;BME280;10650;51.528;6.748;2022-09-13T04:34:22;100733.75;;;18.97;75.36
20983;BME280;10650;51.528;6.748;2022-09-13T04:36:51;100742.75;;;18.98;75.50
20983;BME280;10650;51.528;6.748;2022-09-13T04:39:20;100740.03;;;18.98;75.56
20983;BME280;10650;51.528;6.748;2022-09-13T04:41:50;100746.34;;;18.98;76.22
20983;BME280;10650;51.528;6.748;2022-09-13T04:44:20;100749.06;;;18.98;76.58
20983;BME280;10650;51.528;6.748;2022-09-13T04:46:50;100748.31;;;18.95;76.70
20983;BME280;10650;51.528;6.748;2022-09-13T04:49:18;100754.66;;;18.94;77.14
20983;BME280;10650;51.528;6.748;2022-09-13T04:51:47;100749.31;;;18.92;77.10
20983;BME280;10650;51.528;6.748;2022-09-13T04:54:15;100753.03;;;18.90;77.33
20983;BME280;10650;51.528;6.748;2022-09-13T04:56:43;100749.53;;;18.88;77.50
20983;BME280;10650;51.528;6.748;2022-09-13T04:59:12;100758.50;;;18.88;77.64
20983;BME280;10650;51.528;6.748;2022-09-13T05:01:40;100750.38;;;18.88;77.62
20983;BME280;10650;51.528;6.748;2022-09-13T05:04:09;100745.88;;;18.89;77.95
20983;BME280;10650;51.528;6.748;2022-09-13T05:06:37;100744.09;;;18.88;77.72
20983;BME280;10650;51.528;6.748;2022-09-13T05:09:05;100743.16;;;18.89;78.10
20983;BME280;10650;51.528;6.748;2022-09-13T05:11:32;100746.81;;;18.88;77.75
20983;BME280;10650;51.528;6.748;2022-09-13T05:14:00;100747.69;;;18.88;77.74
20983;BME280;10650;51.528;6.748;2022-09-13T05:16:30;100740.59;;;18.84;77.56
20983;BME280;10650;51.528;6.748;2022-09-13T05:18:59;100745.16;;;18.83;77.50
20983;BME280;10650;51.528;6.748;2022-09-13T05:21:27;100752.41;;;18.83;77.45
20983;BME280;10650;51.528;6.748;2022-09-13T05:23:56;100757.81;;;18.83;77.10
20983;BME280;10650;51.528;6.748;2022-09-13T05:26:26;100754.97;;;18.86;77.35
20983;BME280;10650;51.528;6.748;2022-09-13T05:28:54;100756.81;;;18.85;77.30
20983;BME280;10650;51.528;6.748;2022-09-13T05:31:23;100751.28;;;18.89;77.60
20983;BME280;10650;51.528;6.748;2022-09-13T05:33:55;100756.63;;;18.90;77.13
20983;BME280;10650;51.528;6.748;2022-09-13T05:36:24;100754.78;;;18.91;77.14
20983;BME280;10650;51.528;6.748;2022-09-13T05:38:52;100753.94;;;18.90;76.46
20983;BME280;10650;51.528;6.748;2022-09-13T05:41:40;100749.25;;;18.94;75.71
20983;BME280;10650;51.528;6.748;2022-09-13T05:44:08;100766.25;;;18.97;75.95
20983;BME280;10650;51.528;6.748;2022-09-13T05:46:39;100769.69;;;19.01;75.59
20983;BME280;10650;51.528;6.748;2022-09-13T05:49:10;100768.75;;;19.02;75.05
20983;BME280;10650;51.528;6.748;2022-09-13T05:51:39;100771.31;;;19.05;74.74
20983;BME280;10650;51.528;6.748;2022-09-13T05:54:07;100772.13;;;19.07;74.71
20983;BME280;10650;51.528;6.748;2022-09-13T05:56:34;100776.47;;;19.11;73.63
20983;BME280;10650;51.528;6.748;2022-09-13T05:59:02;100776.34;;;19.14;73.62
20983;BME280;10650;51.528;6.748;2022-09-13T06:01:30;100772.66;;;19.15;73.12
20983;BME280;10650;51.528;6.748;2022-09-13T06:03:58;100776.06;;;19.21;72.87
20983;BME280;10650;51.528;6.748;2022-09-13T06:06:27;100769.63;;;19.23;72.85
20983;BME280;10650;51.528;6.748;2022-09-13T06:08:56;100777.69;;;19.25;72.68
20983;BME280;10650;51.528;6.748;2022-09-13T06:11:24;100776.75;;;19.26;72.46
20983;BME280;10650;51.528;6.748;2022-09-13T06:13:52;100776.66;;;19.27;72.27
20983;BME280;10650;51.528;6.748;2022-09-13T06:16:20;100773.91;;;19.29;72.47
20983;BME280;10650;51.528;6.748;2022-09-13T06:18:48;100772.88;;;19.31;72.73
20983;BME280;10650;51.528;6.748;2022-09-13T06:21:17;100771.97;;;19.31;72.27
20983;BME280;10650;51.528;6.748;2022-09-13T06:23:48;100763.84;;;19.31;72.55
20983;BME280;10650;51.528;6.748;2022-09-13T06:26:19;100766.41;;;19.34;72.50
20983;BME280;10650;51.528;6.748;2022-09-13T06:28:47;100771.69;;;19.37;72.55
20983;BME280;10650;51.528;6.748;2022-09-13T06:31:17;100774.41;;;19.37;72.40
20983;BME280;10650;51.528;6.748;2022-09-13T06:33:45;100768.81;;;19.42;72.37
20983;BME280;10650;51.528;6.748;2022-09-13T06:36:14;100779.41;;;19.46;72.68
20983;BME280;10650;51.528;6.748;2022-09-13T06:38:44;100777.44;;;19.50;72.10
20983;BME280;10650;51.528;6.748;2022-09-13T06:41:15;100780.75;;;19.57;72.36
20983;BME280;10650;51.528;6.748;2022-09-13T06:43:44;100790.34;;;19.64;72.30
20983;BME280;10650;51.528;6.748;2022-09-13T06:46:13;100790.97;;;19.70;72.22
20983;BME280;10650;51.528;6.748;2022-09-13T06:48:42;100787.16;;;19.75;72.10
20983;BME280;10650;51.528;6.748;2022-09-13T06:51:12;100782.41;;;19.80;72.19
20983;BME280;10650;51.528;6.748;2022-09-13T06:53:40;100780.38;;;19.85;71.93
20983;BME280;10650;51.528;6.748;2022-09-13T06:56:10;100775.50;;;19.93;71.46
20983;BME280;10650;51.528;6.748;2022-09-13T06:58:41;100780.53;;;20.01;71.15
20983;BME280;10650;51.528;6.748;2022-09-13T07:01:12;100773.16;;;20.04;71.05
20983;BME280;10650;51.528;6.748;2022-09-13T07:03:42;100777.25;;;20.13;70.80
20983;BME280;10650;51.528;6.748;2022-09-13T07:06:17;100774.47;;;20.15;70.53
20983;BME280;10650;51.528;6.748;2022-09-13T07:08:49;100777.00;;;20.18;70.15
20983;BME280;10650;51.528;6.748;2022-09-13T07:11:19;100781.25;;;20.23;70.02
20983;BME280;10650;51.528;6.748;2022-09-13T07:13:50;100773.75;;;20.29;69.70
20983;BME280;10650;51.528;6.748;2022-09-13T07:16:20;100780.78;;;20.33;69.63
20983;BME280;10650;51.528;6.748;2022-09-13T07:18:50;100780.72;;;20.34;69.32
20983;BME280;10650;51.528;6.748;2022-09-13T07:21:18;100783.06;;;20.42;69.37
20983;BME280;10650;51.528;6.748;2022-09-13T07:23:47;100780.78;;;20.52;69.08
20983;BME280;10650;51.528;6.748;2022-09-13T07:26:15;100780.16;;;20.64;68.39
20983;BME280;10650;51.528;6.748;2022-09-13T07:28:44;100786.97;;;20.73;68.11
20983;BME280;10650;51.528;6.748;2022-09-13T07:31:15;100787.47;;;20.81;68.13
20983;BME280;10650;51.528;6.748;2022-09-13T07:33:44;100778.38;;;20.82;67.63
20983;BME280;10650;51.528;6.748;2022-09-13T07:36:12;100780.28;;;20.80;67.63
20983;BME280;10650;51.528;6.748;2022-09-13T07:38:41;100785.09;;;20.75;67.86
20983;BME280;10650;51.528;6.748;2022-09-13T07:41:12;100777.19;;;20.70;67.84
20983;BME280;10650;51.528;6.748;2022-09-13T07:43:40;100777.22;;;20.69;68.31
20983;BME280;10650;51.528;6.748;2022-09-13T07:46:09;100783.47;;;20.71;68.22
20983;BME280;10650;51.528;6.748;2022-09-13T07:48:41;100787.78;;;20.75;68.04
20983;BME280;10650;51.528;6.748;2022-09-13T07:51:11;100785.63;;;20.82;67.63
20983;BME280;10650;51.528;6.748;2022-09-13T07:53:40;100794.44;;;20.87;67.62
20983;BME280;10650;51.528;6.748;2022-09-13T07:56:09;100790.84;;;20.86;67.25
20983;BME280;10650;51.528;6.748;2022-09-13T07:58:40;100798.66;;;20.92;67.39
20983;BME280;10650;51.528;6.748;2022-09-13T08:01:10;100797.97;;;21.06;68.05
20983;BME280;10650;51.528;6.748;2022-09-13T08:03:41;100790.06;;;21.19;67.43
20983;BME280;10650;51.528;6.748;2022-09-13T08:06:09;100792.19;;;21.30;67.09
20983;BME280;10650;51.528;6.748;2022-09-13T08:08:37;100791.63;;;21.41;66.75
20983;BME280;10650;51.528;6.748;2022-09-13T08:11:05;100787.69;;;21.47;66.54
20983;BME280;10650;51.528;6.748;2022-09-13T08:13:33;100792.81;;;21.53;66.81
20983;BME280;10650;51.528;6.748;2022-09-13T08:16:02;100799.84;;;21.57;66.57
20983;BME280;10650;51.528;6.748;2022-09-13T08:18:30;100800.56;;;21.60;66.29
20983;BME280;10650;51.528;6.748;2022-09-13T08:21:00;100805.03;;;21.62;66.27
20983;BME280;10650;51.528;6.748;2022-09-13T08:23:28;100807.75;;;21.62;66.42
20983;BME280;10650;51.528;6.748;2022-09-13T08:25:59;100802.31;;;21.62;66.21
20983;BME280;10650;51.528;6.748;2022-09-13T08:28:29;100802.41;;;21.60;66.32
20983;BME280;10650;51.528;6.748;2022-09-13T08:31:02;100792.41;;;21.60;66.13
20983;BME280;10650;51.528;6.748;2022-09-13T08:33:30;100795.94;;;21.63;66.15
20983;BME280;10650;51.528;6.748;2022-09-13T08:36:00;100792.09;;;21.67;65.77
20983;BME280;10650;51.528;6.748;2022-09-13T08:38:29;100795.31;;;21.73;65.70
20983;BME280;10650;51.528;6.748;2022-09-13T08:40:58;100796.75;;;21.81;65.46
20983;BME280;10650;51.528;6.748;2022-09-13T08:43:38;100793.53;;;21.90;64.84
20983;BME280;10650;51.528;6.748;2022-09-13T08:46:19;100786.69;;;21.99;64.72
20983;BME280;10650;51.528;6.748;2022-09-13T08:48:50;100787.25;;;22.05;64.59
20983;BME280;10650;51.528;6.748;2022-09-13T08:51:30;100787.94;;;22.09;64.40
20983;BME280;10650;51.528;6.748;2022-09-13T08:53:58;100781.44;;;22.11;64.00
20983;BME280;10650;51.528;6.748;2022-09-13T08:56:35;100782.06;;;22.17;64.67
20983;BME280;10650;51.528;6.748;2022-09-13T08:59:24;100787.16;;;22.23;63.66
20983;BME280;10650;51.528;6.748;2022-09-13T09:02:04;100783.38;;;22.25;63.82
20983;BME280;10650;51.528;6.748;2022-09-13T09:04:40;100792.97;;;22.33;64.21
20983;BME280;10650;51.528;6.748;2022-09-13T09:07:16;100787.19;;;22.39;63.87
20983;BME280;10650;51.528;6.748;2022-09-13T09:09:49;100787.00;;;22.42;63.37
20983;BME280;10650;51.528;6.748;2022-09-13T09:12:25;100789.91;;;22.39;62.89
20983;BME280;10650;51.528;6.748;2022-09-13T09:14:59;100794.81;;;22.48;63.84
20983;BME280;10650;51.528;6.748;2022-09-13T09:17:33;100792.88;;;22.50;63.02
20983;BME280;10650;51.528;6.748;2022-09-13T09:20:18;100793.50;;;22.55;62.96
20983;BME280;10650;51.528;6.748;2022-09-13T09:22:52;100790.06;;;22.52;63.04
20983;BME280;10650;51.528;6.748;2022-09-13T09:25:22;100782.00;;;22.50;62.91
20983;BME280;10650;51.528;6.748;2022-09-13T09:27:51;100786.19;;;22.56;62.92
20983;BME280;10650;51.528;6.748;2022-09-13T09:30:20;100786.16;;;22.72;63.45
20983;BME280;10650;51.528;6.748;2022-09-13T09:35:54;100784.56;;;22.84;62.70
20983;BME280;10650;51.528;6.748;2022-09-13T09:38:37;100784.13;;;22.91;62.58
20983;BME280;10650;51.528;6.748;2022-09-13T09:41:14;100786.88;;;22.75;62.52
20983;BME280;10650;51.528;6.748;2022-09-13T09:43:51;100793.56;;;22.70;62.98
20983;BME280;10650;51.528;6.748;2022-09-13T09:46:23;100794.41;;;22.86;63.21
20983;BME280;10650;51.528;6.748;2022-09-13T09:48:55;100782.41;;;23.05;63.03
20983;BME280;10650;51.528;6.748;2022-09-13T09:51:24;100786.25;;;23.17;62.30
20983;BME280;10650;51.528;6.748;2022-09-13T09:53:59;100793.56;;;23.30;62.49
20983;BME280;10650;51.528;6.748;2022-09-13T09:56:32;100786.38;;;23.44;62.25
20983;BME280;10650;51.528;6.748;2022-09-13T09:59:02;100786.69;;;23.54;62.09
20983;BME280;10650;51.528;6.748;2022-09-13T10:01:31;100776.19;;;23.62;61.74
20983;BME280;10650;51.528;6.748;2022-09-13T10:04:04;100776.38;;;23.59;61.47
20983;BME280;10650;51.528;6.748;2022-09-13T10:06:34;100783.88;;;23.70;61.70
20983;BME280;10650;51.528;6.748;2022-09-13T10:09:12;100782.34;;;23.80;60.99
20983;BME280;10650;51.528;6.748;2022-09-13T10:11:44;100782.47;;;23.93;61.34
20983;BME280;10650;51.528;6.748;2022-09-13T10:14:33;100785.53;;;24.01;60.87
20983;BME280;10650;51.528;6.748;2022-09-13T10:17:05;100776.81;;;23.96;60.33
20983;BME280;10650;51.528;6.748;2022-09-13T10:19:33;100778.25;;;24.01;60.09
20983;BME280;10650;51.528;6.748;2022-09-13T10:22:03;100777.56;;;23.98;60.38
20983;BME280;10650;51.528;6.748;2022-09-13T10:24:32;100775.81;;;23.97;60.31
20983;BME280;10650;51.528;6.748;2022-09-13T10:27:01;100778.53;;;23.97;60.46
20983;BME280;10650;51.528;6.748;2022-09-13T10:29:31;100778.50;;;24.11;60.92
20983;BME280;10650;51.528;6.748;2022-09-13T10:32:07;100776.38;;;24.02;60.60
20983;BME280;10650;51.528;6.748;2022-09-13T10:34:41;100767.41;;;24.14;60.76
20983;BME280;10650;51.528;6.748;2022-09-13T10:37:15;100765.25;;;24.19;60.55
20983;BME280;10650;51.528;6.748;2022-09-13T10:39:52;100769.00;;;24.31;60.72
20983;BME280;10650;51.528;6.748;2022-09-13T10:42:24;100768.63;;;24.38;59.81
20983;BME280;10650;51.528;6.748;2022-09-13T10:44:54;100771.34;;;24.38;60.30
20983;BME280;10650;51.528;6.748;2022-09-13T10:47:25;100778.63;;;24.37;60.26
20983;BME280;10650;51.528;6.748;2022-09-13T10:49:55;100775.22;;;24.48;59.78
20983;BME280;10650;51.528;6.748;2022-09-13T10:52:30;100770.81;;;24.45;59.59
20983;BME280;10650;51.528;6.748;2022-09-13T10:55:26;100761.78;;;24.45;59.20
20983;BME280;10650;51.528;6.748;2022-09-13T10:58:11;100761.25;;;24.52;59.65
20983;BME280;10650;51.528;6.748;2022-09-13T11:00:48;100760.78;;;24.60;59.89
20983;BME280;10650;51.528;6.748;2022-09-13T11:03:31;100761.91;;;24.70;59.30
20983;BME280;10650;51.528;6.748;2022-09-13T11:06:10;100747.59;;;24.80;58.64
20983;BME280;10650;51.528;6.748;2022-09-13T11:08:49;100748.59;;;24.79;58.77
20983;BME280;10650;51.528;6.748;2022-09-13T11:11:24;100753.06;;;24.80;58.42
20983;BME280;10650;51.528;6.748;2022-09-13T11:14:09;100747.78;;;24.64;58.76
20983;BME280;10650;51.528;6.748;2022-09-13T11:16:52;100746.69;;;24.66;58.96
20983;BME280;10650;51.528;6.748;2022-09-13T11:20:17;100731.66;;;24.86;58.76
20983;BME280;10650;51.528;6.748;2022-09-13T11:22:59;100743.19;;;25.04;58.42
20983;BME280;10650;51.528;6.748;2022-09-13T11:25:48;100741.44;;;25.16;58.04
20983;BME280;10650;51.528;6.748;2022-09-13T11:28:24;100735.97;;;25.16;58.10
20983;BME280;10650;51.528;6.748;2022-09-13T11:31:06;100735.53;;;25.10;57.71
20983;BME280;10650;51.528;6.748;2022-09-13T11:33:52;100730.84;;;25.12;58.22
20983;BME280;10650;51.528;6.748;2022-09-13T11:36:43;100729.19;;;25.22;57.98
20983;BME280;10650;51.528;6.748;2022-09-13T11:39:21;100720.25;;;25.33;58.04
20983;BME280;10650;51.528;6.748;2022-09-13T11:42:03;100725.59;;;25.47;58.26
20983;BME280;10650;51.528;6.748;2022-09-13T11:45:02;100723.88;;;25.59;57.60
20983;BME280;10650;51.528;6.748;2022-09-13T11:47:44;100727.13;;;25.64;57.10
20983;BME280;10650;51.528;6.748;2022-09-13T11:50:24;100720.56;;;25.67;57.16
20983;BME280;10650;51.528;6.748;2022-09-13T11:53:05;100719.03;;;25.63;56.53
20983;BME280;10650;51.528;6.748;2022-09-13T11:55:40;100709.97;;;25.49;57.14
20983;BME280;10650;51.528;6.748;2022-09-13T11:58:13;100710.84;;;25.50;57.18
20983;BME280;10650;51.528;6.748;2022-09-13T12:00:46;100703.09;;;25.44;57.18
20983;BME280;10650;51.528;6.748;2022-09-13T12:03:20;100695.31;;;25.25;58.00
20983;BME280;10650;51.528;6.748;2022-09-13T12:05:54;100704.41;;;25.38;58.17
20983;BME280;10650;51.528;6.748;2022-09-13T12:08:25;100699.38;;;25.32;58.18
20983;BME280;10650;51.528;6.748;2022-09-13T12:10:59;100700.69;;;25.39;57.74
20983;BME280;10650;51.528;6.748;2022-09-13T12:13:30;100704.75;;;25.46;57.67
20983;BME280;10650;51.528;6.748;2022-09-13T12:16:03;100701.34;;;25.43;57.61
20983;BME280;10650;51.528;6.748;2022-09-13T12:18:35;100689.91;;;25.62;57.69
20983;BME280;10650;51.528;6.748;2022-09-13T12:21:05;100694.28;;;25.77;57.32
20983;BME280;10650;51.528;6.748;2022-09-13T12:23:38;100683.09;;;25.80;56.56
20983;BME280;10650;51.528;6.748;2022-09-13T12:26:13;100692.22;;;25.68;56.05
20983;BME280;10650;51.528;6.748;2022-09-13T12:28:44;100684.78;;;25.70;56.44
20983;BME280;10650;51.528;6.748;2022-09-13T12:31:18;100685.50;;;25.85;56.62
20983;BME280;10650;51.528;6.748;2022-09-13T12:33:48;100685.56;;;25.96;55.88
20983;BME280;10650;51.528;6.748;2022-09-13T12:39:40;100685.09;;;25.78;55.42
20983;BME280;10650;51.528;6.748;2022-09-13T12:42:34;100692.94;;;25.83;55.85
20983;BME280;10650;51.528;6.748;2022-09-13T12:45:24;100680.38;;;25.67;56.44
20983;BME280;10650;51.528;6.748;2022-09-13T12:48:18;100691.16;;;25.58;57.17
20983;BME280;10650;51.528;6.748;2022-09-13T12:51:03;100692.25;;;25.55;57.21
20983;BME280;10650;51.528;6.748;2022-09-13T12:53:48;100688.00;;;25.38;56.91
20983;BME280;10650;51.528;6.748;2022-09-13T12:56:31;100681.34;;;25.42;57.38
20983;BME280;10650;51.528;6.748;2022-09-13T12:59:13;100684.06;;;25.42;57.40
20983;BME280;10650;51.528;6.748;2022-09-13T13:01:46;100685.88;;;25.54;57.18
20983;BME280;10650;51.528;6.748;2022-09-13T13:04:20;100673.81;;;25.70;57.06
20983;BME280;10650;51.528;6.748;2022-09-13T13:06:50;100675.00;;;25.79;56.71
20983;BME280;10650;51.528;6.748;2022-09-13T13:09:24;100671.25;;;25.93;56.59
20983;BME280;10650;51.528;6.748;2022-09-13T13:11:55;100676.72;;;26.05;55.92
20983;BME280;10650;51.528;6.748;2022-09-13T13:14:28;100676.66;;;26.18;55.28
20983;BME280;10650;51.528;6.748;2022-09-13T13:19:58;100677.75;;;26.40;54.87
20983;BME280;10650;51.528;6.748;2022-09-13T13:22:48;100676.28;;;26.47;54.44
20983;BME280;10650;51.528;6.748;2022-09-13T13:25:30;100681.53;;;26.50;53.89
20983;BME280;10650;51.528;6.748;2022-09-13T13:27:58;100669.59;;;26.51;54.52
20983;BME280;10650;51.528;6.748;2022-09-13T13:33:23;100664.16;;;26.63;54.75
20983;BME280;10650;51.528;6.748;2022-09-13T13:35:54;100660.97;;;26.69;53.97
20983;BME280;10650;51.528;6.748;2022-09-13T13:38:48;100661.16;;;26.66;53.47
20983;BME280;10650;51.528;6.748;2022-09-13T13:41:36;100661.72;;;26.71;54.01